Portada
METAR-TAF:

METAR-TAF

Aeroports :

Macas, Equador

latitud: 02-17-57-S, longitud: 078-07-15-W, altitud: 1052 m

Observació

L'informe es va fer fa 49 minuts, a les 16:00 UTC
Vent 3 kt del Sud
Temperatura 26°C
Humitat 70%
Pressió 1019 hPa
Visibilitat 10 km o més
Núvols disperses a una alçada de 3000 ft
Núvols disperses a una alçada de 10000 ft

METAR: SEMC 061600Z 17003KT 9999 SCT030 SCT100 26/20 Q1019 RMK A3011

Hora: 11:49 (16:49 UTC)


TAF: manca

Observacions i pronòstics meteorològics de més de 4000 aeroports (METAR i TAF).

Les estacions disponibles són els punts grocs i vermells al mapa.

Posi el ratolí al punt desitjat per veure el nom de l'estació.

Feu clic per veure les observacions i els pronòstics meteorològics.

Per canviar el mapa: feu clic els botons verds amb una creu de color negre per apropar; al botó verd amb un guió per allunyar la imatge; o en les fletxes verdes per a mapes adjacents.


METAR-TAF: